Time;durP1;ratioP1;P1;durP2;ratioP2;P2;SDS_P1;SDS_P2;PMS_P1;PMS_P2;Temp;Humidity;BMP_temperature;BMP_pressure;BME280_temperature;BME280_humidity;BME280_pressure;Samples;Min_cycle;Max_cycle;Signal;HPM_P1;HPM_P2
2021/10/16 00:01:29;;;;;;;6.10;3.70;;;9.60;92.80;;;;;;5000888;28;20064;-75
2021/10/16 00:03:55;;;;;;;4.57;3.45;;;9.60;92.80;;;;;;5000446;28;20275;-75
2021/10/16 00:06:20;;;;;;;4.93;3.65;;;9.60;92.90;;;;;;5000686;28;20026;-75
2021/10/16 00:08:46;;;;;;;7.18;3.55;;;9.50;92.90;;;;;;4984498;28;20034;-75
2021/10/16 00:11:12;;;;;;;6.60;3.70;;;9.50;92.90;;;;;;4984681;28;20026;-75
2021/10/16 00:13:39;;;;;;;5.15;3.03;;;9.50;93.00;;;;;;5000674;28;20026;-76
2021/10/16 00:16:05;;;;;;;4.95;3.42;;;9.40;93.00;;;;;;5000837;28;20357;-75
2021/10/16 00:18:32;;;;;;;4.35;3.13;;;9.40;93.00;;;;;;5000662;28;20027;-75
2021/10/16 00:21:01;;;;;;;;;;;9.40;93.00;;;;;;4984772;28;20384;-75
2021/10/16 00:23:27;;;;;;;4.32;3.10;;;9.40;92.90;;;;;;4984251;28;19968;-75
2021/10/16 00:25:53;;;;;;;3.88;3.05;;;9.40;92.90;;;;;;5000749;28;20029;-75
2021/10/16 00:28:19;;;;;;;5.00;2.83;;;9.20;92.90;;;;;;5000598;28;20086;-75
2021/10/16 00:30:45;;;;;;;5.83;3.60;;;9.20;93.00;;;;;;5000698;28;20042;-75
2021/10/16 00:33:11;;;;;;;3.60;3.17;;;9.20;93.10;;;;;;5000256;28;20371;-75
2021/10/16 00:35:36;;;;;;;4.50;3.35;;;9.20;93.10;;;;;;5000227;28;20027;-75
2021/10/16 00:38:02;;;;;;;5.35;3.80;;;9.10;93.10;;;;;;4983539;28;20049;-75
2021/10/16 00:40:28;;;;;;;3.85;2.83;;;9.10;93.10;;;;;;5000350;28;20213;-75
2021/10/16 00:42:55;;;;;;;5.85;3.65;;;9.10;93.00;;;;;;5000213;28;20052;-75
2021/10/16 00:45:22;;;;;;;4.45;3.08;;;9.10;93.00;;;;;;5000580;28;20042;-75
2021/10/16 00:47:48;;;;;;;6.40;3.40;;;9.00;93.00;;;;;;5000428;28;20107;-75
2021/10/16 00:50:16;;;;;;;6.70;3.10;;;9.00;93.20;;;;;;5000194;28;20391;-75
2021/10/16 00:52:41;;;;;;;4.22;3.03;;;9.00;93.10;;;;;;5000374;28;20053;-75
2021/10/16 00:55:12;;;;;;;4.90;3.13;;;8.90;93.20;;;;;;5000076;28;20027;-75
2021/10/16 00:57:38;;;;;;;5.55;3.58;;;9.00;93.10;;;;;;4984034;28;20076;-75
2021/10/16 01:00:06;;;;;;;5.25;3.20;;;8.90;93.10;;;;;;5000367;28;20085;-75
2021/10/16 01:02:33;;;;;;;8.80;3.80;;;8.90;93.10;;;;;;5000525;28;20028;-75
2021/10/16 01:04:58;;;;;;;5.60;3.13;;;8.80;93.10;;;;;;5000101;28;20269;-75
2021/10/16 01:07:25;;;;;;;5.50;3.90;;;8.80;93.10;;;;;;4999990;28;20034;-75
2021/10/16 01:09:51;;;;;;;4.85;3.03;;;8.70;93.10;;;;;;5000281;28;20050;-75
2021/10/16 01:12:17;;;;;;;7.87;3.90;;;8.70;93.10;;;;;;4983948;28;20030;-75
2021/10/16 01:14:57;;;;;;;4.10;2.95;;;8.70;93.20;;;;;;4999962;28;20030;-76
2021/10/16 01:17:23;;;;;;;9.13;4.30;;;8.70;93.20;;;;;;5001730;28;20026;-76
2021/10/16 01:20:20;;;;;;;5.00;3.05;;;8.60;93.30;;;;;;4983859;28;20170;-75
2021/10/16 01:22:46;;;;;;;6.40;3.72;;;8.60;93.40;;;;;;4999842;28;20014;-76
2021/10/16 01:25:17;;;;;;;10.50;5.05;;;8.60;93.50;;;;;;5000054;28;20126;-76
2021/10/16 01:27:43;;;;;;;7.40;4.60;;;8.50;93.50;;;;;;4987876;28;20101;-75
2021/10/16 01:30:11;;;;;;;8.20;4.28;;;8.50;93.70;;;;;;4987139;28;20022;-75
2021/10/16 01:32:38;;;;;;;7.85;4.10;;;8.50;93.70;;;;;;5003618;28;20346;-75
2021/10/16 01:35:05;;;;;;;9.35;4.53;;;8.50;93.60;;;;;;5004211;28;20048;-76
2021/10/16 01:37:32;;;;;;;6.97;4.20;;;8.50;93.60;;;;;;5026576;23;20043;-83
2021/10/16 01:39:57;;;;;;;6.45;3.88;;;8.40;93.70;;;;;;5015610;28;20065;-82
2021/10/16 01:42:23;;;;;;;10.60;4.32;;;8.40;93.70;;;;;;5024463;28;20021;-83
2021/10/16 01:44:49;;;;;;;7.80;4.70;;;8.40;93.60;;;;;;5040600;28;20324;-83
2021/10/16 01:47:15;;;;;;;7.57;4.28;;;8.30;93.50;;;;;;5040758;28;20080;-83
2021/10/16 01:49:41;;;;;;;7.20;4.38;;;8.30;93.50;;;;;;5025383;28;20029;-82
2021/10/16 01:52:06;;;;;;;9.00;4.13;;;8.20;93.50;;;;;;4991511;28;20531;-83
2021/10/16 01:54:33;;;;;;;5.43;4.10;;;8.20;93.40;;;;;;5023960;28;20033;-83
2021/10/16 01:56:59;;;;;;;6.18;4.15;;;8.20;93.40;;;;;;5007825;28;20022;-83
2021/10/16 01:59:26;;;;;;;8.32;4.65;;;8.20;93.40;;;;;;5007864;28;20030;-83
2021/10/16 02:01:53;;;;;;;7.50;4.88;;;8.10;93.30;;;;;;5007887;28;20336;-82
2021/10/16 02:04:19;;;;;;;6.72;4.10;;;8.10;93.20;;;;;;4992492;28;20025;-83
2021/10/16 02:06:45;;;;;;;6.70;4.10;;;8.10;93.30;;;;;;5008846;28;20340;-82
2021/10/16 02:09:11;;;;;;;7.10;4.45;;;8.00;93.20;;;;;;4973990;28;20278;-83
2021/10/16 02:11:37;;;;;;;7.43;4.07;;;8.00;93.30;;;;;;4985831;28;20034;-83
2021/10/16 02:14:04;;;;;;;7.00;4.38;;;8.00;93.40;;;;;;4985183;28;20050;-83
2021/10/16 02:16:30;;;;;;;8.40;4.68;;;8.00;93.40;;;;;;4985046;28;20099;-83
2021/10/16 02:18:57;;;;;;;8.10;4.70;;;7.90;93.70;;;;;;4986088;28;20027;-83
2021/10/16 02:21:23;;;;;;;8.63;4.40;;;7.90;93.70;;;;;;4991978;28;20014;-83
2021/10/16 02:23:49;;;;;;;6.53;4.30;;;7.90;93.90;;;;;;4989967;28;20022;-83
2021/10/16 02:26:15;;;;;;;8.10;4.35;;;7.90;93.80;;;;;;4988710;28;20130;-83
2021/10/16 02:28:41;;;;;;;9.25;3.67;;;7.90;94.00;;;;;;4988334;28;20018;-83
2021/10/16 02:31:06;;;;;;;6.97;4.10;;;7.80;93.80;;;;;;4987849;28;20053;-83
2021/10/16 02:33:32;;;;;;;6.38;3.80;;;7.80;93.90;;;;;;4987801;28;20031;-83
2021/10/16 02:35:58;;;;;;;6.28;4.20;;;7.80;94.30;;;;;;4988003;28;20049;-83
2021/10/16 02:38:24;;;;;;;6.13;4.00;;;7.80;94.00;;;;;;4996651;28;20315;-83
2021/10/16 02:40:50;;;;;;;4.15;3.05;;;7.90;93.90;;;;;;5006687;28;20029;-83
2021/10/16 02:43:15;;;;;;;6.85;4.32;;;7.90;93.70;;;;;;5022575;28;20030;-83
2021/10/16 02:45:41;;;;;;;5.53;3.65;;;7.80;93.70;;;;;;5022068;28;20022;-83
2021/10/16 02:48:07;;;;;;;5.47;3.47;;;7.70;93.70;;;;;;5022022;28;20041;-83
2021/10/16 02:50:33;;;;;;;4.85;2.97;;;7.70;93.80;;;;;;5021683;28;20033;-83
2021/10/16 02:52:58;;;;;;;5.22;3.22;;;7.80;93.60;;;;;;5005041;28;20022;-83
2021/10/16 02:55:24;;;;;;;5.50;3.47;;;7.70;93.40;;;;;;5005453;28;20033;-83
2021/10/16 02:57:50;;;;;;;5.95;4.05;;;7.70;93.50;;;;;;5005265;28;20041;-83
2021/10/16 03:00:16;;;;;;;5.25;3.88;;;7.70;93.40;;;;;;5021532;28;20046;-83
2021/10/16 03:02:42;;;;;;;3.80;2.67;;;7.70;93.40;;;;;;5005244;28;20026;-83
2021/10/16 03:05:08;;;;;;;4.30;2.72;;;7.70;93.20;;;;;;5004804;28;20274;-83
2021/10/16 03:07:34;;;;;;;4.17;2.87;;;7.60;93.10;;;;;;5004789;28;20030;-83
2021/10/16 03:10:00;;;;;;;3.38;2.40;;;7.60;92.90;;;;;;4988502;28;20288;-83
2021/10/16 03:12:25;;;;;;;3.45;2.22;;;7.60;93.00;;;;;;5021448;28;20022;-83
2021/10/16 03:14:51;;;;;;;3.25;2.30;;;7.50;92.90;;;;;;4988156;28;20141;-83
2021/10/16 03:17:17;;;;;;;5.30;3.30;;;7.50;92.90;;;;;;5020822;28;20030;-83
2021/10/16 03:19:44;;;;;;;5.10;2.88;;;7.30;92.60;;;;;;5004255;28;20026;-82
2021/10/16 03:22:10;;;;;;;2.10;1.90;;;7.30;93.10;;;;;;5005192;28;20026;-83
2021/10/16 03:24:36;;;;;;;3.97;2.83;;;7.30;93.00;;;;;;5003629;28;20026;-83
2021/10/16 03:27:02;;;;;;;4.25;2.70;;;7.40;93.00;;;;;;4987805;28;20037;-83
2021/10/16 03:29:28;;;;;;;4.03;2.53;;;7.40;92.90;;;;;;5003689;28;20030;-83
2021/10/16 03:31:54;;;;;;;3.55;2.30;;;7.30;92.90;;;;;;5020274;28;20297;-83
2021/10/16 03:34:20;;;;;;;2.50;2.30;;;7.20;93.00;;;;;;4987424;28;20056;-82
2021/10/16 03:36:46;;;;;;;2.72;2.13;;;7.00;92.90;;;;;;5003762;28;20085;-82
2021/10/16 03:39:12;;;;;;;4.77;2.50;;;7.00;93.10;;;;;;5024156;28;20026;-83
2021/10/16 03:41:37;;;;;;;3.88;2.50;;;7.00;93.10;;;;;;5023083;28;20265;-83
2021/10/16 03:44:03;;;;;;;3.20;2.20;;;7.00;93.00;;;;;;4990274;28;20018;-83
2021/10/16 03:46:29;;;;;;;3.13;2.50;;;6.90;93.10;;;;;;4989611;28;20316;-83
2021/10/16 03:48:55;;;;;;;3.20;2.22;;;6.90;93.00;;;;;;5005415;28;20068;-83
2021/10/16 03:51:21;;;;;;;2.83;2.20;;;6.80;93.00;;;;;;5006429;28;20033;-83
2021/10/16 03:53:47;;;;;;;4.15;2.72;;;6.80;93.00;;;;;;4988360;28;20037;-83
2021/10/16 03:56:13;;;;;;;4.30;2.67;;;6.80;92.80;;;;;;5021220;28;20035;-81
2021/10/16 03:58:40;;;;;;;2.10;1.85;;;6.70;93.00;;;;;;4988331;28;20046;-83
2021/10/16 04:01:06;;;;;;;3.45;2.45;;;6.70;93.10;;;;;;5020659;28;20383;-83
2021/10/16 04:03:32;;;;;;;5.90;3.08;;;6.60;93.10;;;;;;5020274;28;20072;-82
2021/10/16 04:05:57;;;;;;;3.20;2.50;;;6.60;93.20;;;;;;5004209;28;20048;-82
2021/10/16 04:08:23;;;;;;;3.50;2.22;;;6.60;93.40;;;;;;5003667;28;20040;-82
2021/10/16 04:10:49;;;;;;;3.28;2.47;;;6.60;93.30;;;;;;5003895;28;20026;-83
2021/10/16 04:13:15;;;;;;;4.20;2.80;;;6.60;93.20;;;;;;5019598;28;20022;-82
2021/10/16 04:15:41;;;;;;;3.60;2.45;;;6.70;93.30;;;;;;5004877;28;20037;-83
2021/10/16 04:18:07;;;;;;;3.40;2.42;;;6.40;93.30;;;;;;5006960;28;20046;-82
2021/10/16 04:20:33;;;;;;;3.65;2.65;;;6.40;93.50;;;;;;5007245;28;20390;-83
2021/10/16 04:22:59;;;;;;;3.60;2.25;;;6.50;93.50;;;;;;5022470;28;20082;-83
2021/10/16 04:25:25;;;;;;;4.03;2.55;;;6.50;93.40;;;;;;5021140;28;20033;-83
2021/10/16 04:27:51;;;;;;;4.20;2.77;;;6.30;93.20;;;;;;5004545;28;20033;-83
2021/10/16 04:30:17;;;;;;;4.43;3.05;;;6.30;93.50;;;;;;5005159;28;20026;-82
2021/10/16 04:32:43;;;;;;;3.88;2.60;;;6.20;93.70;;;;;;5020878;28;20026;-83
2021/10/16 04:35:09;;;;;;;3.30;2.53;;;6.30;93.70;;;;;;5004077;28;20049;-83
2021/10/16 04:37:35;;;;;;;4.40;2.75;;;6.30;93.60;;;;;;5003393;28;20225;-82
2021/10/16 04:40:10;;;;;;;4.00;2.72;;;6.20;93.70;;;;;;4987857;28;20030;-82
2021/10/16 04:42:36;;;;;;;4.00;2.63;;;6.30;93.80;;;;;;5019765;28;20065;-83
2021/10/16 04:45:02;;;;;;;4.75;2.65;;;6.30;94.00;;;;;;5020118;28;20022;-82
2021/10/16 04:47:28;;;;;;;3.58;2.20;;;6.30;93.80;;;;;;5019999;28;20097;-83
2021/10/16 04:49:54;;;;;;;4.30;2.20;;;6.30;93.80;;;;;;5019445;28;20026;-83
2021/10/16 04:52:20;;;;;;;2.75;1.80;;;6.30;93.60;;;;;;5003626;28;20037;-82
2021/10/16 04:54:46;;;;;;;3.50;1.90;;;6.20;93.30;;;;;;5019432;28;20210;-82
2021/10/16 04:57:11;;;;;;;2.63;1.58;;;6.20;93.20;;;;;;5019173;28;20022;-83
2021/10/16 04:59:37;;;;;;;2.85;1.77;;;6.20;93.00;;;;;;5019489;28;20035;-82
2021/10/16 05:02:03;;;;;;;3.20;1.80;;;6.10;92.80;;;;;;5007739;28;20018;-82
2021/10/16 05:04:29;;;;;;;2.03;1.60;;;6.00;93.00;;;;;;5022739;28;20065;-82
2021/10/16 05:06:56;;;;;;;3.08;1.73;;;6.00;93.10;;;;;;5022892;28;20026;-82
2021/10/16 05:09:21;;;;;;;2.85;1.95;;;5.90;93.30;;;;;;5007763;28;20034;-83
2021/10/16 05:11:47;;;;;;;3.00;2.00;;;5.90;93.10;;;;;;5026059;28;20041;-83
2021/10/16 05:14:13;;;;;;;3.25;2.00;;;5.90;93.30;;;;;;5025017;28;20341;-83
2021/10/16 05:16:39;;;;;;;2.50;1.85;;;5.80;93.20;;;;;;5008918;28;20021;-83
2021/10/16 05:19:05;;;;;;;2.00;1.63;;;5.90;93.10;;;;;;4991065;28;20056;-82
2021/10/16 05:21:31;;;;;;;2.45;1.88;;;5.80;93.10;;;;;;5007259;28;20022;-83
2021/10/16 05:23:56;;;;;;;3.45;2.00;;;5.80;93.00;;;;;;5006466;28;20022;-82
2021/10/16 05:26:22;;;;;;;4.97;1.80;;;5.80;93.00;;;;;;5022677;28;20038;-82
2021/10/16 05:28:48;;;;;;;2.42;1.88;;;5.80;93.20;;;;;;5021930;28;20052;-82
2021/10/16 05:31:14;;;;;;;3.35;2.10;;;5.70;93.50;;;;;;5022546;28;20034;-82
2021/10/16 05:33:40;;;;;;;2.80;1.95;;;5.70;93.40;;;;;;5023592;28;20018;-82
2021/10/16 05:36:05;;;;;;;2.58;1.67;;;5.80;93.50;;;;;;5022788;28;20050;-82
2021/10/16 05:38:31;;;;;;;3.22;1.90;;;5.80;93.40;;;;;;5020682;28;20030;-82
2021/10/16 05:40:57;;;;;;;5.25;2.00;;;5.80;93.30;;;;;;4990253;28;20105;-82
2021/10/16 05:43:23;;;;;;;2.67;1.75;;;5.80;93.00;;;;;;5020357;28;20026;-81
2021/10/16 05:45:49;;;;;;;3.90;2.22;;;5.80;93.00;;;;;;4988643;28;20086;-81
2021/10/16 05:48:15;;;;;;;5.60;2.30;;;5.80;93.00;;;;;;4988233;28;20026;-81
2021/10/16 05:50:42;;;;;;;4.30;1.88;;;5.80;93.00;;;;;;4972902;28;20057;-81
2021/10/16 05:53:07;;;;;;;2.83;2.00;;;5.70;92.80;;;;;;4988206;28;20253;-81
2021/10/16 05:55:33;;;;;;;3.83;2.45;;;5.70;93.00;;;;;;4988919;28;20031;-82
2021/10/16 05:57:59;;;;;;;3.72;2.17;;;5.70;93.10;;;;;;4988913;28;20029;-82
2021/10/16 06:00:25;;;;;;;3.03;2.00;;;5.80;93.10;;;;;;5005302;28;20030;-82
2021/10/16 06:02:51;;;;;;;7.55;2.22;;;5.80;93.10;;;;;;4988473;28;20033;-83
2021/10/16 06:05:18;;;;;;;4.47;1.90;;;5.70;92.70;;;;;;4956730;28;20041;-82
2021/10/16 06:07:43;;;;;;;4.57;1.92;;;5.60;93.00;;;;;;4966969;28;20030;-82
2021/10/16 06:10:10;;;;;;;6.38;1.88;;;5.60;93.10;;;;;;4985272;28;20035;-81
2021/10/16 06:12:36;;;;;;;4.30;2.10;;;5.50;93.50;;;;;;4968796;28;20027;-81
2021/10/16 06:15:01;;;;;;;6.13;2.35;;;5.60;93.80;;;;;;5001335;28;20038;-82
2021/10/16 06:17:28;;;;;;;4.15;2.03;;;5.60;93.60;;;;;;4985910;28;20144;-83
2021/10/16 06:19:53;;;;;;;6.85;2.50;;;5.70;93.40;;;;;;5002317;28;20027;-82
2021/10/16 06:22:19;;;;;;;3.30;2.15;;;5.60;93.40;;;;;;5006231;28;20023;-82
2021/10/16 06:24:45;;;;;;;4.18;2.20;;;5.70;93.40;;;;;;5007153;28;20018;-82
2021/10/16 06:27:11;;;;;;;7.57;2.30;;;5.70;93.30;;;;;;4988129;28;20448;-82
2021/10/16 06:29:37;;;;;;;5.25;2.50;;;5.70;93.40;;;;;;5005343;28;20041;-82
2021/10/16 06:32:03;;;;;;;3.70;2.30;;;5.70;93.40;;;;;;5003927;28;20022;-82
2021/10/16 06:34:29;;;;;;;4.28;1.92;;;5.80;93.50;;;;;;4987429;28;20109;-80
2021/10/16 06:36:55;;;;;;;4.88;2.42;;;5.80;93.50;;;;;;4987230;28;20274;-81
2021/10/16 06:39:20;;;;;;;2.80;2.00;;;5.80;93.40;;;;;;4968575;28;20030;-80
2021/10/16 06:41:46;;;;;;;3.15;2.03;;;5.90;93.50;;;;;;4983659;28;20082;-80
2021/10/16 06:44:12;;;;;;;7.13;2.65;;;6.00;93.50;;;;;;4999356;28;20046;-80
2021/10/16 06:46:38;;;;;;;5.63;2.95;;;6.00;93.20;;;;;;4983324;28;20225;-80
2021/10/16 06:49:03;;;;;;;3.47;2.05;;;6.10;93.10;;;;;;4983119;28;20026;-81
2021/10/16 06:51:29;;;;;;;5.97;2.40;;;6.10;93.00;;;;;;4999649;28;20106;-80
2021/10/16 06:53:55;;;;;;;3.80;2.13;;;6.10;93.10;;;;;;4966983;28;20023;-78
2021/10/16 06:56:21;;;;;;;3.45;2.10;;;6.10;93.30;;;;;;4999259;28;20045;-75
2021/10/16 06:58:48;;;;;;;4.47;2.35;;;6.20;93.40;;;;;;4989741;28;20137;-80
2021/10/16 07:01:14;;;;;;;3.13;1.92;;;6.20;93.30;;;;;;4986651;28;20048;-80
2021/10/16 07:03:40;;;;;;;3.22;2.00;;;6.20;92.80;;;;;;5002047;28;20022;-80
2021/10/16 07:06:06;;;;;;;2.75;1.75;;;6.20;92.80;;;;;;5002232;28;20340;-78
2021/10/16 07:08:31;;;;;;;3.30;1.98;;;6.20;92.90;;;;;;4981669;28;20034;-78
2021/10/16 07:10:58;;;;;;;3.42;2.13;;;6.20;92.80;;;;;;4966741;28;20318;-77
2021/10/16 07:13:24;;;;;;;4.60;2.58;;;6.20;92.90;;;;;;4982165;28;20206;-77
2021/10/16 07:15:50;;;;;;;4.15;2.47;;;6.30;92.90;;;;;;4982779;28;20022;-79
2021/10/16 07:18:16;;;;;;;6.67;2.50;;;6.30;92.70;;;;;;4982553;28;20023;-79
2021/10/16 07:20:42;;;;;;;3.67;2.35;;;6.30;92.60;;;;;;4983222;28;20058;-80
2021/10/16 07:23:08;;;;;;;4.82;2.63;;;6.10;92.50;;;;;;4981899;28;20046;-77
2021/10/16 07:25:34;;;;;;;4.63;2.50;;;6.10;93.00;;;;;;4982507;28;20094;-77
2021/10/16 07:27:59;;;;;;;4.57;2.63;;;6.10;92.90;;;;;;4993642;28;20023;-76
2021/10/16 07:30:25;;;;;;;4.72;2.63;;;6.10;93.10;;;;;;4966347;28;20320;-78
2021/10/16 07:32:51;;;;;;;6.82;2.60;;;6.30;93.40;;;;;;4966095;28;20098;-79
2021/10/16 07:35:17;;;;;;;4.05;2.72;;;6.40;93.50;;;;;;4982232;28;20034;-79
2021/10/16 07:37:43;;;;;;;3.97;2.47;;;6.50;93.40;;;;;;4986833;28;20046;-78
2021/10/16 07:40:10;;;;;;;5.55;2.70;;;6.60;93.20;;;;;;5001697;28;20037;-77
2021/10/16 07:42:36;;;;;;;;;;;6.60;93.40;;;;;;4985882;28;20340;-81
2021/10/16 07:45:02;;;;;;;4.93;2.60;;;6.70;93.40;;;;;;5001517;28;19906;-78
2021/10/16 07:47:28;;;;;;;4.03;2.92;;;6.70;93.20;;;;;;4985266;28;20046;-78
2021/10/16 07:49:54;;;;;;;4.82;2.55;;;6.80;93.00;;;;;;5001162;28;20026;-77
2021/10/16 07:52:20;;;;;;;6.65;2.75;;;6.70;92.30;;;;;;4985014;28;20026;-77
2021/10/16 07:54:46;;;;;;;8.35;2.88;;;6.50;92.90;;;;;;5000439;28;20277;-76
2021/10/16 07:57:12;;;;;;;7.22;3.33;;;6.40;93.00;;;;;;5001925;28;20085;-71
2021/10/16 07:59:38;;;;;;;5.97;2.67;;;6.40;92.90;;;;;;4999047;28;20093;-70
2021/10/16 08:02:03;;;;;;;5.97;2.70;;;6.20;92.90;;;;;;4997608;28;20340;-70
2021/10/16 08:04:29;;;;;;;5.38;3.45;;;6.30;93.40;;;;;;4982183;28;20078;-69
2021/10/16 08:06:55;;;;;;;5.43;2.90;;;6.40;93.50;;;;;;4982404;28;20030;-70
2021/10/16 08:09:21;;;;;;;5.78;3.10;;;6.50;93.60;;;;;;5000179;28;20036;-71
2021/10/16 08:11:47;;;;;;;6.93;2.97;;;6.60;93.50;;;;;;4985198;28;20045;-70
2021/10/16 08:14:12;;;;;;;4.32;2.97;;;6.60;93.00;;;;;;5001703;28;20325;-72
2021/10/16 08:16:38;;;;;;;4.82;3.03;;;6.70;93.10;;;;;;5002052;28;20022;-71
2021/10/16 08:19:04;;;;;;;4.63;3.38;;;6.60;93.10;;;;;;5002130;28;20217;-71
2021/10/16 08:21:30;;;;;;;6.68;3.15;;;6.70;93.30;;;;;;5002142;28;20018;-71
2021/10/16 08:23:56;;;;;;;5.70;2.97;;;6.90;93.10;;;;;;4984341;28;20018;-70
2021/10/16 08:26:21;;;;;;;5.13;3.03;;;7.00;92.50;;;;;;5002207;28;20018;-71
2021/10/16 08:28:48;;;;;;;3.75;2.47;;;7.00;92.40;;;;;;4997738;28;20325;-71
2021/10/16 08:31:14;;;;;;;3.30;2.95;;;7.20;92.60;;;;;;5002100;28;20018;-71
2021/10/16 08:33:40;;;;;;;5.30;3.03;;;7.20;92.50;;;;;;5017060;28;20108;-71
2021/10/16 08:36:06;;;;;;;8.35;3.90;;;7.30;92.50;;;;;;5003974;28;20261;-71
2021/10/16 08:38:32;;;;;;;6.60;3.35;;;7.40;92.40;;;;;;4994013;28;20093;-72
2021/10/16 08:40:58;;;;;;;6.07;3.35;;;7.40;92.40;;;;;;4985988;28;20360;-71
2021/10/16 08:43:24;;;;;;;7.22;4.30;;;7.60;92.40;;;;;;4985505;28;20027;-70
2021/10/16 08:45:50;;;;;;;6.25;3.95;;;7.70;92.20;;;;;;4986335;28;20029;-71
2021/10/16 08:48:15;;;;;;;6.00;3.65;;;7.70;92.20;;;;;;4985439;28;20056;-71
2021/10/16 08:50:44;;;;;;;5.32;3.38;;;7.60;92.20;;;;;;4986806;28;20031;-72
2021/10/16 08:53:10;;;;;;;6.50;3.45;;;7.60;91.70;;;;;;4985058;28;20030;-72
2021/10/16 08:55:36;;;;;;;5.85;3.33;;;7.60;91.50;;;;;;4969265;28;20309;-72
2021/10/16 08:58:02;;;;;;;6.63;3.63;;;7.40;92.00;;;;;;4968890;28;20054;-75
2021/10/16 09:00:54;;;;;;;8.23;4.07;;;7.20;92.40;;;;;;4990692;28;20038;-73
2021/10/16 09:03:40;;;;;;;7.07;3.25;;;7.30;92.40;;;;;;4997582;28;20369;-75
2021/10/16 09:06:30;;;;;;;7.57;4.05;;;7.40;92.10;;;;;;4984983;28;20046;-74
2021/10/16 09:09:09;;;;;;;6.18;3.42;;;7.20;91.40;;;;;;4984749;28;20026;-74
2021/10/16 09:11:36;;;;;;;5.15;3.42;;;7.20;92.10;;;;;;4988781;28;20014;-74
2021/10/16 09:14:13;;;;;;;5.68;3.78;;;7.40;91.90;;;;;;4988010;28;20418;-74
2021/10/16 09:17:03;;;;;;;6.05;3.83;;;7.40;91.70;;;;;;4987971;28;20033;-74
2021/10/16 09:19:34;;;;;;;5.22;3.13;;;7.00;92.20;;;;;;4986274;28;20026;-74
2021/10/16 09:22:03;;;;;;;6.63;4.13;;;7.00;92.70;;;;;;4988030;28;20427;-74
2021/10/16 09:24:32;;;;;;;6.30;3.78;;;7.20;92.70;;;;;;5005054;28;20226;-74
2021/10/16 09:27:00;;;;;;;7.45;3.92;;;7.50;92.60;;;;;;5005229;28;20022;-74
2021/10/16 09:29:31;;;;;;;6.88;3.95;;;7.60;92.30;;;;;;5002252;28;20030;-74
2021/10/16 09:32:16;;;;;;;7.75;4.15;;;7.50;91.80;;;;;;4960117;28;20034;-74
2021/10/16 09:34:46;;;;;;;6.28;3.75;;;7.70;91.90;;;;;;5008482;28;20037;-74
2021/10/16 09:37:20;;;;;;;12.52;6.20;;;7.70;91.90;;;;;;4969965;28;20034;-74
2021/10/16 09:39:48;;;;;;;6.72;4.10;;;7.90;91.90;;;;;;4984276;28;20023;-73
2021/10/16 09:42:42;;;;;;;4.72;3.50;;;7.90;92.00;;;;;;4985522;28;20078;-74
2021/10/16 09:45:12;;;;;;;7.97;4.18;;;8.00;91.80;;;;;;4971511;28;20031;-73
2021/10/16 09:47:54;;;;;;;7.95;4.30;;;8.20;91.60;;;;;;4967524;28;20034;-74
2021/10/16 09:50:20;;;;;;;5.35;3.60;;;8.30;91.40;;;;;;4984344;28;20101;-74
2021/10/16 09:52:48;;;;;;;4.93;3.47;;;8.40;90.90;;;;;;4984132;28;20030;-74
2021/10/16 09:55:14;;;;;;;5.93;3.70;;;8.50;90.90;;;;;;4967854;28;20032;-73
2021/10/16 09:57:41;;;;;;;9.82;5.10;;;8.70;90.70;;;;;;4983627;28;20022;-74
2021/10/16 10:00:07;;;;;;;8.20;4.18;;;8.70;90.90;;;;;;4983987;28;20054;-74
2021/10/16 10:02:33;;;;;;;6.95;4.05;;;8.90;90.90;;;;;;4993446;28;20029;-74
2021/10/16 10:05:05;;;;;;;7.90;4.53;;;9.00;88.70;;;;;;4994671;28;20038;-76
2021/10/16 10:07:33;;;;;;;7.18;4.22;;;9.10;89.50;;;;;;4984024;28;20042;-75
2021/10/16 10:09:59;;;;;;;7.57;4.25;;;9.10;88.50;;;;;;4983570;28;20030;-75
2021/10/16 10:12:25;;;;;;;5.97;4.00;;;9.00;88.10;;;;;;4967285;28;20030;-75
2021/10/16 10:14:52;;;;;;;6.00;4.18;;;8.80;89.00;;;;;;4983445;28;20266;-76
2021/10/16 10:17:23;;;;;;;7.05;3.55;;;9.10;90.50;;;;;;4983476;28;20031;-76
2021/10/16 10:19:55;;;;;;;6.65;4.35;;;9.10;88.20;;;;;;4983893;28;20037;-75
2021/10/16 10:22:21;;;;;;;5.57;3.88;;;9.40;90.30;;;;;;4983549;28;20022;-75
2021/10/16 10:24:51;;;;;;;5.53;4.10;;;9.80;90.70;;;;;;4966699;28;20221;-75
2021/10/16 10:27:20;;;;;;;7.10;4.13;;;10.20;90.40;;;;;;4983229;28;20038;-75
2021/10/16 10:29:49;;;;;;;6.57;3.83;;;10.70;89.60;;;;;;4983346;28;20318;-76
2021/10/16 10:32:17;;;;;;;5.18;3.40;;;11.10;84.30;;;;;;4987996;28;20030;-76
2021/10/16 10:34:56;;;;;;;6.95;3.40;;;11.50;85.30;;;;;;4986265;28;20038;-76
2021/10/16 10:37:48;;;;;;;6.88;3.30;;;12.00;85.00;;;;;;4983685;28;20203;-76
2021/10/16 10:40:14;;;;;;;6.35;3.22;;;12.50;82.60;;;;;;4969508;28;20086;-76
2021/10/16 10:42:40;;;;;;;4.83;2.80;;;13.00;80.00;;;;;;4984141;28;20022;-76
2021/10/16 10:45:25;;;;;;;5.85;3.08;;;13.40;78.10;;;;;;4966835;28;20118;-75
2021/10/16 10:48:12;;;;;;;5.72;3.00;;;13.90;76.90;;;;;;4982697;28;20485;-76
2021/10/16 10:50:55;;;;;;;6.05;3.60;;;14.50;73.10;;;;;;4982966;28;20034;-75
2021/10/16 10:53:31;;;;;;;7.05;3.10;;;15.20;70.50;;;;;;4982423;28;20057;-75
2021/10/16 10:55:59;;;;;;;4.85;3.00;;;16.10;65.30;;;;;;4982723;28;20030;-76
2021/10/16 10:58:57;;;;;;;3.97;2.65;;;17.20;61.10;;;;;;4981265;28;20273;-76
2021/10/16 11:01:43;;;;;;;2.65;2.42;;;18.50;56.50;;;;;;4983486;28;20030;-76
2021/10/16 11:04:09;;;;;;;2.50;2.28;;;18.90;52.60;;;;;;4991153;28;20377;-76
2021/10/16 11:06:35;;;;;;;4.75;3.05;;;19.80;50.60;;;;;;4969556;28;20033;-76
2021/10/16 11:09:17;;;;;;;2.75;2.10;;;20.40;48.80;;;;;;4989576;28;20035;-76
2021/10/16 11:11:49;;;;;;;5.25;2.45;;;21.00;47.20;;;;;;4982436;28;20027;-76
2021/10/16 11:14:18;;;;;;;3.83;1.90;;;20.80;46.80;;;;;;4982293;28;20289;-76
2021/10/16 11:17:00;;;;;;;3.80;2.20;;;20.60;45.50;;;;;;4982243;28;20023;-76
2021/10/16 11:19:26;;;;;;;2.75;1.98;;;21.50;44.40;;;;;;4982291;28;20027;-76
2021/10/16 11:21:57;;;;;;;;;;;21.90;44.00;;;;;;4982567;28;20143;-76
2021/10/16 11:24:24;;;;;;;4.03;2.40;;;21.20;44.50;;;;;;4981739;28;20086;-76
2021/10/16 11:26:54;;;;;;;3.53;1.80;;;19.80;46.30;;;;;;4982169;28;20057;-76
2021/10/16 11:29:40;;;;;;;8.43;3.20;;;17.80;51.20;;;;;;4982484;28;20093;-76
2021/10/16 11:32:23;;;;;;;7.38;2.10;;;16.90;55.80;;;;;;4982690;28;20019;-76
2021/10/16 11:35:00;;;;;;;2.35;1.80;;;16.60;56.10;;;;;;4966375;28;20023;-76
2021/10/16 11:37:43;;;;;;;6.13;2.22;;;15.90;58.50;;;;;;4982750;28;20027;-75
2021/10/16 11:40:17;;;;;;;2.63;1.90;;;15.70;59.70;;;;;;4981941;28;20126;-76
2021/10/16 11:42:45;;;;;;;5.22;2.10;;;15.50;59.80;;;;;;4983364;28;20057;-75
2021/10/16 11:45:21;;;;;;;5.38;2.63;;;15.40;61.30;;;;;;4966151;28;20073;-76
2021/10/16 11:47:53;;;;;;;5.00;2.30;;;15.50;60.90;;;;;;4981825;28;20034;-75
2021/10/16 11:50:25;;;;;;;3.85;2.10;;;16.30;57.00;;;;;;4981812;28;20086;-75
2021/10/16 11:53:10;;;;;;;4.25;1.85;;;16.60;55.20;;;;;;4982597;28;20054;-75
2021/10/16 11:55:37;;;;;;;3.42;1.83;;;16.90;54.20;;;;;;4982394;28;20041;-75
2021/10/16 11:58:11;;;;;;;1.63;1.33;;;17.60;54.80;;;;;;4982398;28;20028;-75
2021/10/16 12:00:38;;;;;;;3.60;1.55;;;18.80;50.90;;;;;;4982744;28;20034;-76
2021/10/16 12:03:15;;;;;;;3.78;1.48;;;20.60;47.30;;;;;;4982235;28;20276;-76
2021/10/16 12:05:43;;;;;;;2.15;1.23;;;22.10;43.60;;;;;;4982763;28;20030;-76
2021/10/16 12:08:29;;;;;;;5.43;2.30;;;22.80;41.20;;;;;;4991112;28;20019;-76
2021/10/16 12:11:02;;;;;;;3.47;1.70;;;23.90;39.20;;;;;;5001358;28;20026;-76
2021/10/16 12:13:41;;;;;;;2.03;1.50;;;24.80;37.20;;;;;;5001676;28;20030;-76
2021/10/16 12:16:19;;;;;;;2.55;1.52;;;24.60;37.80;;;;;;5003054;28;20101;-76
2021/10/16 12:19:00;;;;;;;1.77;1.20;;;25.40;35.20;;;;;;5017648;28;20396;-76
2021/10/16 12:21:28;;;;;;;1.85;1.55;;;25.40;34.10;;;;;;4985534;28;20030;-76
2021/10/16 12:23:55;;;;;;;3.42;1.58;;;24.90;33.50;;;;;;5002258;28;20375;-76
2021/10/16 12:26:28;;;;;;;2.10;1.23;;;25.90;34.00;;;;;;4985263;28;20026;-76
2021/10/16 12:28:55;;;;;;;1.98;1.33;;;26.40;32.30;;;;;;5003295;28;20018;-76
2021/10/16 12:31:21;;;;;;;4.22;1.27;;;25.40;32.70;;;;;;5001697;28;20073;-76
2021/10/16 12:34:14;;;;;;;2.45;1.30;;;24.00;32.50;;;;;;5017786;28;20034;-76
2021/10/16 12:36:42;;;;;;;2.53;1.10;;;25.40;32.50;;;;;;5017181;28;20022;-76
2021/10/16 12:39:10;;;;;;;1.23;1.10;;;26.50;31.40;;;;;;5017047;28;20076;-76
2021/10/16 12:41:39;;;;;;;3.20;1.20;;;26.60;31.10;;;;;;5017933;28;20018;-76
2021/10/16 12:44:14;;;;;;;3.42;1.40;;;26.40;31.40;;;;;;5017451;28;20332;-76
2021/10/16 12:46:40;;;;;;;2.42;1.27;;;26.90;30.80;;;;;;5002538;28;20022;-76
2021/10/16 12:49:06;;;;;;;2.55;1.10;;;27.50;29.50;;;;;;5001337;28;20022;-76
2021/10/16 12:51:50;;;;;;;3.13;1.45;;;27.40;30.40;;;;;;5001417;28;20053;-76
2021/10/16 12:54:35;;;;;;;1.73;1.13;;;27.70;29.80;;;;;;5017109;28;20038;-76
2021/10/16 12:57:10;;;;;;;1.63;1.00;;;26.50;31.60;;;;;;5016562;28;20186;-76
2021/10/16 12:59:38;;;;;;;3.27;1.50;;;26.90;30.60;;;;;;5017712;28;20045;-76
2021/10/16 13:02:05;;;;;;;1.90;1.10;;;26.70;30.70;;;;;;5017411;28;20266;-76